createdAt,value
2022-12-25T00:02:30.755Z,15.20
2022-12-25T00:05:03.514Z,14.60
2022-12-25T00:07:36.035Z,14.30
2022-12-25T00:10:10.619Z,18.20
2022-12-25T00:12:43.388Z,19.20
2022-12-25T00:15:16.046Z,20.10
2022-12-25T00:17:48.542Z,17.30
2022-12-25T00:20:21.235Z,17.30
2022-12-25T00:22:54.024Z,17.60
2022-12-25T00:25:26.505Z,18.70
2022-12-25T00:27:59.021Z,17.70
2022-12-25T00:30:31.589Z,21.20
2022-12-25T00:33:04.072Z,19.20
2022-12-25T00:35:39.478Z,20.80
2022-12-25T00:38:12.540Z,24.30
2022-12-25T00:40:47.889Z,26.70
2022-12-25T00:43:20.558Z,28.10
2022-12-25T00:46:01.193Z,27.10
2022-12-25T00:48:34.574Z,28.50
2022-12-25T00:51:09.466Z,31.50
2022-12-25T00:53:41.986Z,27.50
2022-12-25T00:56:14.500Z,28.30
2022-12-25T00:58:48.307Z,28.70
2022-12-25T01:01:20.962Z,30.00
2022-12-25T01:03:53.625Z,28.60
2022-12-25T01:06:26.179Z,32.00
2022-12-25T01:09:17.529Z,32.50
2022-12-25T01:11:53.276Z,31.10
2022-12-25T01:14:25.927Z,29.90
2022-12-25T01:16:58.705Z,31.80
2022-12-25T01:19:31.524Z,31.80
2022-12-25T01:22:05.126Z,28.40
2022-12-25T01:24:37.952Z,27.30
2022-12-25T01:27:10.509Z,29.00
2022-12-25T01:29:43.128Z,29.50
2022-12-25T01:32:16.113Z,28.30
2022-12-25T01:34:55.633Z,30.00
2022-12-25T01:37:29.038Z,27.10
2022-12-25T01:40:01.755Z,28.60
2022-12-25T01:42:34.458Z,31.40
2022-12-25T01:45:42.543Z,28.60
2022-12-25T01:50:53.504Z,31.40
2022-12-25T01:53:27.218Z,28.80
2022-12-25T01:56:04.057Z,28.60
2022-12-25T01:58:37.223Z,28.40
2022-12-25T02:01:12.610Z,28.40
2022-12-25T02:03:46.020Z,27.70
2022-12-25T02:06:18.776Z,30.40
2022-12-25T02:08:53.139Z,28.50
2022-12-25T02:11:39.856Z,26.70
2022-12-25T02:14:13.491Z,26.10
2022-12-25T02:16:58.347Z,28.60
2022-12-25T02:20:04.325Z,27.20
2022-12-25T02:22:50.022Z,26.20
2022-12-25T02:25:37.949Z,27.40
2022-12-25T02:28:18.295Z,25.70
2022-12-25T02:30:58.138Z,25.80
2022-12-25T02:33:54.014Z,26.80
2022-12-25T02:36:32.732Z,29.40
2022-12-25T02:39:29.407Z,26.70
2022-12-25T02:42:07.494Z,27.50
2022-12-25T02:45:02.586Z,24.70
2022-12-25T02:48:00.250Z,28.50
2022-12-25T02:50:50.117Z,27.10
2022-12-25T02:53:40.619Z,27.30
2022-12-25T02:56:31.828Z,26.80
2022-12-25T02:59:23.261Z,30.10
2022-12-25T03:02:14.208Z,33.40
2022-12-25T03:05:05.568Z,28.20
2022-12-25T03:07:43.718Z,27.80
2022-12-25T03:10:36.201Z,26.20
2022-12-25T03:13:15.270Z,29.80
2022-12-25T03:16:06.161Z,26.80
2022-12-25T03:18:40.677Z,28.80
2022-12-25T03:21:30.969Z,27.10
2022-12-25T03:24:18.249Z,29.90
2022-12-25T03:26:57.565Z,26.60
2022-12-25T03:29:51.572Z,26.10
2022-12-25T03:32:36.975Z,25.40
2022-12-25T03:35:25.524Z,25.90
2022-12-25T03:38:32.709Z,27.00
2022-12-25T03:41:50.901Z,26.10
2022-12-25T03:44:51.661Z,31.20
2022-12-25T03:47:47.763Z,32.60
2022-12-25T03:50:42.528Z,30.40
2022-12-25T03:53:39.076Z,27.90
2022-12-25T03:56:31.387Z,28.10
2022-12-25T03:59:24.066Z,25.70
2022-12-25T04:02:16.958Z,23.40
2022-12-25T04:05:07.475Z,21.70
2022-12-25T04:07:57.679Z,22.80
2022-12-25T04:10:47.811Z,24.60
2022-12-25T04:13:37.849Z,23.80
2022-12-25T04:16:28.448Z,24.10
2022-12-25T04:19:18.772Z,26.30
2022-12-25T04:22:08.511Z,24.50
2022-12-25T04:24:58.936Z,23.50
2022-12-25T04:27:49.651Z,26.40
2022-12-25T04:30:39.586Z,26.70
2022-12-25T04:33:30.024Z,25.00
2022-12-25T04:36:11.825Z,24.80
2022-12-25T04:38:45.012Z,24.90
2022-12-25T04:41:18.303Z,25.20
2022-12-25T04:43:50.940Z,24.50
2022-12-25T04:46:23.645Z,25.30
2022-12-25T04:48:56.509Z,26.60
2022-12-25T04:51:29.412Z,23.40
2022-12-25T04:54:02.840Z,27.20
2022-12-25T04:56:41.580Z,26.10
2022-12-25T04:59:16.317Z,26.20
2022-12-25T05:01:49.270Z,28.40
2022-12-25T05:04:21.971Z,26.10
2022-12-25T05:06:54.875Z,25.30
2022-12-25T05:09:28.344Z,27.70
2022-12-25T05:12:00.980Z,25.70
2022-12-25T05:14:33.893Z,31.90
2022-12-25T05:17:07.984Z,28.50
2022-12-25T05:19:40.488Z,33.70
2022-12-25T05:22:13.144Z,30.00
2022-12-25T05:24:45.933Z,32.30
2022-12-25T05:27:19.000Z,32.70
2022-12-25T05:29:51.809Z,29.10
2022-12-25T05:32:25.269Z,29.60
2022-12-25T05:35:00.616Z,31.30
2022-12-25T05:37:33.137Z,34.40
2022-12-25T05:40:09.935Z,31.50
2022-12-25T05:42:42.967Z,28.50
2022-12-25T05:45:15.853Z,30.30
2022-12-25T05:47:48.650Z,34.10
2022-12-25T05:50:21.500Z,30.30
2022-12-25T05:52:54.146Z,29.00
2022-12-25T05:55:26.897Z,28.10
2022-12-25T05:58:00.407Z,28.40
2022-12-25T06:00:33.247Z,27.70
2022-12-25T06:03:06.222Z,31.10
2022-12-25T06:05:40.792Z,28.60
2022-12-25T06:08:13.415Z,31.80
2022-12-25T06:10:46.288Z,29.00
2022-12-25T06:13:18.813Z,27.00
2022-12-25T06:15:51.575Z,31.50
2022-12-25T06:18:24.481Z,30.40
2022-12-25T06:20:57.094Z,31.20
2022-12-25T06:23:29.949Z,27.90
2022-12-25T06:26:03.937Z,30.90
2022-12-25T06:28:36.877Z,35.00
2022-12-25T06:31:14.552Z,31.30
2022-12-25T06:33:48.317Z,36.80
2022-12-25T06:36:24.034Z,35.00
2022-12-25T06:38:57.391Z,32.30
2022-12-25T06:41:31.435Z,31.30
2022-12-25T06:44:05.220Z,34.00
2022-12-25T06:46:37.980Z,31.10
2022-12-25T06:49:11.233Z,31.60
2022-12-25T06:51:44.090Z,33.50
2022-12-25T06:54:17.040Z,32.10
2022-12-25T06:56:51.177Z,30.70
2022-12-25T06:59:23.899Z,35.00
2022-12-25T07:01:58.925Z,28.20
2022-12-25T07:04:35.693Z,36.80
2022-12-25T07:07:10.300Z,39.40
2022-12-25T07:09:43.795Z,42.30
2022-12-25T07:12:20.989Z,34.50
2022-12-25T07:14:55.214Z,33.50
2022-12-25T07:17:27.868Z,28.60
2022-12-25T07:20:01.345Z,32.80
2022-12-25T07:22:34.049Z,29.30
2022-12-25T07:25:07.507Z,26.60
2022-12-25T07:27:41.263Z,26.10
2022-12-25T07:30:15.622Z,28.50
2022-12-25T07:32:51.001Z,27.90
2022-12-25T07:35:23.633Z,27.20
2022-12-25T07:37:56.561Z,27.50
2022-12-25T07:40:29.344Z,31.00
2022-12-25T07:43:02.085Z,30.40
2022-12-25T07:45:35.442Z,28.50
2022-12-25T07:48:11.990Z,29.70
2022-12-25T07:50:49.023Z,32.90
2022-12-25T07:53:21.764Z,31.30
2022-12-25T07:56:02.119Z,29.80
2022-12-25T07:58:35.315Z,27.30
2022-12-25T08:01:11.830Z,32.60
2022-12-25T08:03:44.672Z,28.80
2022-12-25T08:06:17.442Z,33.60
2022-12-25T08:08:51.167Z,33.80
2022-12-25T08:11:23.684Z,130.40
2022-12-25T08:13:56.436Z,37.70
2022-12-25T08:16:29.154Z,46.20
2022-12-25T08:19:01.986Z,41.10
2022-12-25T08:21:35.572Z,37.00
2022-12-25T08:24:08.766Z,35.80
2022-12-25T08:26:41.429Z,36.40
2022-12-25T08:29:14.046Z,34.90
2022-12-25T08:31:47.382Z,36.00
2022-12-25T08:34:20.669Z,36.10
2022-12-25T08:36:53.389Z,34.80
2022-12-25T08:39:26.354Z,35.90
2022-12-25T08:42:00.004Z,35.10
2022-12-25T08:44:34.391Z,33.40
2022-12-25T08:47:07.257Z,36.00
2022-12-25T08:49:39.946Z,32.70
2022-12-25T08:52:13.779Z,36.80
2022-12-25T08:54:47.475Z,35.40
2022-12-25T08:57:21.007Z,40.10
2022-12-25T08:59:53.605Z,35.10
2022-12-25T09:02:26.585Z,38.70
2022-12-25T09:04:59.726Z,37.00
2022-12-25T09:07:32.615Z,34.10
2022-12-25T09:10:06.151Z,38.60
2022-12-25T09:12:40.668Z,39.90
2022-12-25T09:15:14.093Z,36.10
2022-12-25T09:17:46.796Z,33.10
2022-12-25T09:20:19.953Z,29.80
2022-12-25T09:22:53.776Z,30.20
2022-12-25T09:25:26.421Z,33.90
2022-12-25T09:27:59.900Z,29.50
2022-12-25T09:30:32.816Z,27.00
2022-12-25T09:33:05.516Z,30.70
2022-12-25T09:35:39.860Z,29.20
2022-12-25T09:38:12.509Z,29.30
2022-12-25T09:40:45.204Z,29.20
2022-12-25T09:43:22.526Z,27.00
2022-12-25T09:45:55.975Z,26.90
2022-12-25T09:48:32.420Z,27.40
2022-12-25T09:51:10.723Z,31.60
2022-12-25T09:53:47.488Z,30.90
2022-12-25T09:56:25.702Z,29.60
2022-12-25T09:59:00.646Z,29.40
2022-12-25T10:01:42.768Z,24.10
2022-12-25T10:04:41.614Z,25.60
2022-12-25T10:07:20.080Z,25.10
2022-12-25T10:10:04.764Z,28.40
2022-12-25T10:12:50.642Z,28.50
2022-12-25T10:15:45.264Z,31.20
2022-12-25T10:18:45.814Z,30.20
2022-12-25T10:21:20.690Z,32.60
2022-12-25T10:24:01.481Z,33.00
2022-12-25T10:26:36.630Z,29.10
2022-12-25T10:29:16.622Z,31.50
2022-12-25T10:31:54.974Z,32.20
2022-12-25T10:34:29.076Z,29.00
2022-12-25T10:37:02.534Z,35.00
2022-12-25T10:39:36.735Z,32.60
2022-12-25T10:42:30.470Z,29.50
2022-12-25T10:45:05.710Z,30.00
2022-12-25T10:47:42.692Z,30.70
2022-12-25T10:50:24.328Z,30.10
2022-12-25T10:53:05.110Z,25.80
2022-12-25T10:55:38.119Z,25.60
2022-12-25T10:58:19.921Z,25.40
2022-12-25T11:00:58.356Z,23.00
2022-12-25T11:03:33.349Z,22.70
2022-12-25T11:06:07.884Z,26.50
2022-12-25T11:08:40.542Z,26.10
2022-12-25T11:11:23.244Z,26.30
2022-12-25T11:13:58.801Z,30.50
2022-12-25T11:16:34.318Z,24.90
2022-12-25T11:19:23.154Z,25.60
2022-12-25T11:21:58.136Z,20.70
2022-12-25T11:24:32.426Z,21.60
2022-12-25T11:27:10.196Z,19.00
2022-12-25T11:29:47.931Z,18.60
2022-12-25T11:32:26.581Z,19.10
2022-12-25T11:35:00.248Z,19.50
2022-12-25T11:37:39.727Z,20.10
2022-12-25T11:40:19.603Z,22.90
2022-12-25T11:42:58.269Z,24.50
2022-12-25T11:45:39.579Z,22.70
2022-12-25T11:48:19.359Z,27.30
2022-12-25T11:50:56.280Z,23.50
2022-12-25T11:53:36.177Z,23.00
2022-12-25T11:56:12.890Z,26.20
2022-12-25T11:58:49.628Z,25.50
2022-12-25T12:01:29.806Z,23.50
2022-12-25T12:04:04.576Z,27.00
2022-12-25T12:06:46.935Z,26.50
2022-12-25T12:09:31.254Z,22.40
2022-12-25T12:12:09.978Z,23.30
2022-12-25T12:14:57.016Z,24.90
2022-12-25T12:17:32.339Z,25.60
2022-12-25T12:20:28.781Z,25.40
2022-12-25T12:23:03.669Z,21.60
2022-12-25T12:25:42.870Z,19.80
2022-12-25T12:28:24.392Z,21.90
2022-12-25T12:31:06.599Z,18.60
2022-12-25T12:33:42.942Z,22.00
2022-12-25T12:36:17.323Z,22.30
2022-12-25T12:38:51.072Z,26.20
2022-12-25T12:41:27.361Z,24.90
2022-12-25T12:44:04.070Z,25.70
2022-12-25T12:46:40.113Z,22.90
2022-12-25T12:49:21.733Z,22.80
2022-12-25T12:52:06.411Z,25.50
2022-12-25T12:54:58.039Z,25.90
2022-12-25T12:57:32.927Z,23.40
2022-12-25T13:00:10.878Z,24.60
2022-12-25T13:03:07.198Z,34.30
2022-12-25T13:05:46.202Z,35.80
2022-12-25T13:08:34.777Z,37.70
2022-12-25T13:11:21.187Z,30.80
2022-12-25T13:13:56.168Z,25.90
2022-12-25T13:16:32.227Z,32.70
2022-12-25T13:19:09.992Z,26.50
2022-12-25T13:21:52.675Z,28.20
2022-12-25T13:24:27.412Z,24.70
2022-12-25T13:27:01.297Z,24.10
2022-12-25T13:29:35.772Z,32.10
2022-12-25T13:32:16.676Z,22.60
2022-12-25T13:34:51.064Z,20.90
2022-12-25T13:37:26.373Z,22.20
2022-12-25T13:40:01.663Z,21.20
2022-12-25T13:42:48.771Z,21.30
2022-12-25T13:45:27.960Z,21.10
2022-12-25T13:48:10.491Z,26.50
2022-12-25T13:50:48.498Z,29.10
2022-12-25T13:53:21.677Z,28.30
2022-12-25T13:55:57.571Z,33.10
2022-12-25T13:58:34.894Z,29.30
2022-12-25T14:01:08.055Z,32.10
2022-12-25T14:03:45.632Z,29.90
2022-12-25T14:06:26.148Z,29.00
2022-12-25T14:09:00.011Z,26.50
2022-12-25T14:11:34.181Z,28.10
2022-12-25T14:14:16.150Z,27.90
2022-12-25T14:16:50.690Z,29.40
2022-12-25T14:19:31.975Z,26.30
2022-12-25T14:22:11.344Z,24.70
2022-12-25T14:24:43.907Z,27.90
2022-12-25T14:27:22.115Z,27.90
2022-12-25T14:32:29.821Z,27.70
2022-12-25T14:35:04.051Z,31.70
2022-12-25T14:37:38.367Z,30.10
2022-12-25T14:40:25.768Z,30.00
2022-12-25T14:43:02.883Z,31.90
2022-12-25T14:45:38.579Z,27.80
2022-12-25T14:48:25.426Z,25.60
2022-12-25T14:51:03.550Z,25.40
2022-12-25T14:53:40.965Z,23.90
2022-12-25T14:56:20.086Z,26.70
2022-12-25T14:58:55.947Z,29.30
2022-12-25T15:01:33.525Z,31.50
2022-12-25T15:04:16.109Z,31.80
2022-12-25T15:06:59.457Z,29.20
2022-12-25T15:09:32.423Z,33.10
2022-12-25T15:12:05.413Z,32.20
2022-12-25T15:14:40.192Z,30.50
2022-12-25T15:17:24.520Z,32.50
2022-12-25T15:20:01.728Z,37.80
2022-12-25T15:22:53.944Z,37.60
2022-12-25T15:25:27.546Z,30.20
2022-12-25T15:28:01.887Z,35.50
2022-12-25T15:30:35.683Z,36.80
2022-12-25T15:33:08.707Z,36.20
2022-12-25T15:35:41.303Z,38.60
2022-12-25T15:38:14.380Z,35.60
2022-12-25T15:40:48.189Z,34.90
2022-12-25T15:43:39.990Z,31.10
2022-12-25T15:46:13.700Z,36.20
2022-12-25T15:48:46.296Z,37.20
2022-12-25T15:51:20.058Z,39.90
2022-12-25T15:53:52.783Z,46.10
2022-12-25T15:56:27.304Z,43.00
2022-12-25T15:58:59.814Z,40.40
2022-12-25T16:01:32.456Z,46.50
2022-12-25T16:04:06.127Z,54.20
2022-12-25T16:06:38.633Z,46.80
2022-12-25T16:09:12.799Z,53.40
2022-12-25T16:11:45.567Z,48.40
2022-12-25T16:14:19.663Z,64.90
2022-12-25T16:16:52.164Z,52.70
2022-12-25T16:19:25.020Z,69.00
2022-12-25T16:21:57.991Z,63.30
2022-12-25T16:24:30.493Z,57.10
2022-12-25T16:27:02.983Z,49.80
2022-12-25T16:29:35.553Z,43.90
2022-12-25T16:32:08.251Z,46.60
2022-12-25T16:34:40.860Z,49.20
2022-12-25T16:37:13.509Z,50.50
2022-12-25T16:39:46.390Z,53.00
2022-12-25T16:42:21.255Z,64.50
2022-12-25T16:44:54.282Z,71.00
2022-12-25T16:47:26.814Z,149.80
2022-12-25T16:49:59.674Z,136.20
2022-12-25T16:52:32.871Z,127.60
2022-12-25T16:55:07.781Z,129.10
2022-12-25T16:57:40.423Z,82.80
2022-12-25T17:00:15.028Z,86.00
2022-12-25T17:02:47.694Z,92.40
2022-12-25T17:05:20.500Z,107.30
2022-12-25T17:07:56.375Z,110.40
2022-12-25T17:10:28.931Z,107.40
2022-12-25T17:13:01.454Z,139.20
2022-12-25T17:15:34.066Z,135.40
2022-12-25T17:18:06.775Z,167.50
2022-12-25T17:20:39.604Z,120.10
2022-12-25T17:23:12.096Z,126.50
2022-12-25T17:25:44.570Z,115.30
2022-12-25T17:28:17.208Z,96.70
2022-12-25T17:30:49.800Z,99.20
2022-12-25T17:33:22.421Z,92.00
2022-12-25T17:36:00.048Z,110.60
2022-12-25T17:38:36.284Z,87.90
2022-12-25T17:41:11.747Z,111.70
2022-12-25T17:43:46.720Z,175.00
2022-12-25T17:46:21.475Z,217.30
2022-12-25T17:48:56.185Z,112.80
2022-12-25T17:51:30.574Z,92.60
2022-12-25T17:54:04.274Z,97.10
2022-12-25T17:56:37.019Z,94.80
2022-12-25T17:59:12.190Z,86.70
2022-12-25T18:01:44.713Z,104.60
2022-12-25T18:04:17.365Z,133.90
2022-12-25T18:06:50.171Z,143.10
2022-12-25T18:09:23.381Z,174.00
2022-12-25T18:11:56.248Z,155.90
2022-12-25T18:14:29.769Z,213.00
2022-12-25T18:17:02.341Z,219.90
2022-12-25T18:19:35.532Z,157.30
2022-12-25T18:22:08.091Z,180.80
2022-12-25T18:24:41.018Z,157.90
2022-12-25T18:27:14.257Z,144.80
2022-12-25T18:29:47.986Z,129.90
2022-12-25T18:32:26.306Z,111.30
2022-12-25T18:35:00.514Z,116.20
2022-12-25T18:37:39.463Z,114.80
2022-12-25T18:40:13.724Z,148.90
2022-12-25T18:42:46.709Z,147.40
2022-12-25T18:45:21.207Z,161.70
2022-12-25T18:47:53.666Z,152.80
2022-12-25T18:50:26.157Z,138.10
2022-12-25T18:52:58.754Z,129.20
2022-12-25T18:55:31.921Z,125.90
2022-12-25T18:58:04.915Z,111.10
2022-12-25T19:00:37.496Z,105.80
2022-12-25T19:03:10.085Z,104.30
2022-12-25T19:05:43.830Z,127.50
2022-12-25T19:08:16.370Z,131.00
2022-12-25T19:10:49.395Z,146.20
2022-12-25T19:13:22.444Z,151.20
2022-12-25T19:15:58.287Z,174.60
2022-12-25T19:18:31.081Z,118.70
2022-12-25T19:21:09.247Z,109.90
2022-12-25T19:23:41.923Z,108.30
2022-12-25T19:26:15.085Z,115.90
2022-12-25T19:28:47.801Z,119.40
2022-12-25T19:31:20.456Z,124.00
2022-12-25T19:33:54.459Z,121.00
2022-12-25T19:36:27.016Z,143.70
2022-12-25T19:38:59.842Z,153.10
2022-12-25T19:41:32.872Z,156.10
2022-12-25T19:44:05.936Z,176.60
2022-12-25T19:46:41.848Z,167.60
2022-12-25T19:49:15.800Z,138.30
2022-12-25T19:51:48.958Z,141.50
2022-12-25T19:54:21.514Z,121.90
2022-12-25T19:56:54.040Z,115.70
2022-12-25T19:59:28.304Z,114.60
2022-12-25T20:02:00.999Z,115.50
2022-12-25T20:04:33.617Z,115.40
2022-12-25T20:07:06.142Z,123.80
2022-12-25T20:09:38.654Z,136.90
2022-12-25T20:12:14.709Z,137.40
2022-12-25T20:14:47.375Z,156.60
2022-12-25T20:17:20.088Z,172.80
2022-12-25T20:19:52.624Z,151.70
2022-12-25T20:22:25.105Z,154.80
2022-12-25T20:24:58.485Z,149.60
2022-12-25T20:27:31.309Z,141.60
2022-12-25T20:30:04.277Z,131.60
2022-12-25T20:32:36.814Z,136.70
2022-12-25T20:35:15.749Z,124.40
2022-12-25T20:37:48.647Z,137.40
2022-12-25T20:40:21.341Z,138.60
2022-12-25T20:42:53.862Z,142.90
2022-12-25T20:45:26.338Z,144.60
2022-12-25T20:47:59.229Z,150.50
2022-12-25T20:50:32.111Z,137.20
2022-12-25T20:53:04.607Z,128.50
2022-12-25T20:55:37.222Z,120.60
2022-12-25T20:58:09.841Z,120.40
2022-12-25T21:00:43.771Z,120.00
2022-12-25T21:03:16.939Z,121.20
2022-12-25T21:05:55.840Z,122.60
2022-12-25T21:08:28.715Z,122.90
2022-12-25T21:11:02.896Z,124.60
2022-12-25T21:13:38.306Z,129.50
2022-12-25T21:16:13.354Z,134.10
2022-12-25T21:18:45.948Z,115.60
2022-12-25T21:21:18.946Z,114.50
2022-12-25T21:23:51.827Z,110.90
2022-12-25T21:26:27.103Z,106.40
2022-12-25T21:29:01.623Z,110.40
2022-12-25T21:31:55.677Z,120.70
2022-12-25T21:34:30.567Z,120.40
2022-12-25T21:37:03.089Z,125.60
2022-12-25T21:39:35.611Z,111.10
2022-12-25T21:42:08.260Z,110.40
2022-12-25T21:44:40.854Z,107.20
2022-12-25T21:47:13.426Z,98.20
2022-12-25T21:50:03.357Z,104.10
2022-12-25T21:52:36.458Z,98.10
2022-12-25T21:55:10.502Z,90.40
2022-12-25T21:57:43.376Z,97.90
2022-12-25T22:00:17.004Z,102.00
2022-12-25T22:02:51.179Z,104.80
2022-12-25T22:05:38.380Z,109.00
2022-12-25T22:08:10.996Z,109.50
2022-12-25T22:10:43.511Z,102.90
2022-12-25T22:13:33.277Z,105.40
2022-12-25T22:16:26.372Z,98.20
2022-12-25T22:19:17.693Z,96.90
2022-12-25T22:21:50.536Z,92.70
2022-12-25T22:24:23.600Z,90.10
2022-12-25T22:26:56.096Z,101.30
2022-12-25T22:29:30.925Z,105.60
2022-12-25T22:32:03.458Z,107.30
2022-12-25T22:34:39.011Z,112.90
2022-12-25T22:37:15.327Z,107.50
2022-12-25T22:39:48.042Z,99.90
2022-12-25T22:42:20.757Z,86.60
2022-12-25T22:44:53.299Z,84.70
2022-12-25T22:47:26.574Z,83.40
2022-12-25T22:50:00.781Z,71.40
2022-12-25T22:52:33.497Z,75.10
2022-12-25T22:55:08.311Z,79.00
2022-12-25T22:57:40.791Z,77.10
2022-12-25T23:00:16.678Z,82.00
2022-12-25T23:02:49.343Z,77.10
2022-12-25T23:05:22.277Z,73.60
2022-12-25T23:07:54.774Z,60.70
2022-12-25T23:10:28.040Z,57.20
2022-12-25T23:13:17.750Z,63.60
2022-12-25T23:15:51.172Z,52.90
2022-12-25T23:18:40.944Z,65.20
2022-12-25T23:21:33.508Z,67.20
2022-12-25T23:24:38.195Z,63.90
2022-12-25T23:27:10.928Z,65.60
2022-12-25T23:29:43.452Z,63.40
2022-12-25T23:32:22.493Z,62.10
2022-12-25T23:34:55.878Z,60.30
2022-12-25T23:37:28.407Z,63.70
2022-12-25T23:40:03.799Z,47.00
2022-12-25T23:42:36.310Z,41.90
2022-12-25T23:45:10.661Z,31.00
2022-12-25T23:47:43.142Z,18.20
2022-12-25T23:50:15.795Z,17.00
2022-12-25T23:52:48.343Z,14.60
2022-12-25T23:55:20.950Z,13.40
2022-12-25T23:57:53.539Z,12.60
